createdAt,value
2017-01-11T00:00:22.956Z,1002.12
2017-01-11T00:01:23.190Z,1002.18
2017-01-11T00:02:23.043Z,1002.15
2017-01-11T00:03:23.151Z,1002.21
2017-01-11T00:04:22.985Z,1002.26
2017-01-11T00:05:23.013Z,1002.26
2017-01-11T00:06:23.043Z,1002.27
2017-01-11T00:07:23.083Z,1002.23
2017-01-11T00:08:23.472Z,1002.31
2017-01-11T00:09:23.330Z,1002.31
2017-01-11T00:10:23.236Z,1002.32
2017-01-11T00:11:23.405Z,1002.33
2017-01-11T00:12:23.373Z,1002.31
2017-01-11T00:13:23.346Z,1002.24
2017-01-11T00:14:23.354Z,1002.21
2017-01-11T00:15:23.338Z,1002.19
2017-01-11T00:16:23.251Z,1002.22
2017-01-11T00:17:23.270Z,1002.23
2017-01-11T00:18:23.515Z,1002.25
2017-01-11T00:19:23.359Z,1002.27
2017-01-11T00:20:23.528Z,1002.26
2017-01-11T00:21:23.615Z,1002.23
2017-01-11T00:22:23.507Z,1002.26
2017-01-11T00:23:23.440Z,1002.21
2017-01-11T00:24:23.590Z,1002.21
2017-01-11T00:25:23.220Z,1002.19
2017-01-11T00:26:23.304Z,1002.08
2017-01-11T00:27:23.456Z,1002.12
2017-01-11T00:28:23.610Z,1002.08
2017-01-11T00:29:23.465Z,1002.06
2017-01-11T00:30:23.377Z,1002.01
2017-01-11T00:31:23.630Z,1001.96
2017-01-11T00:32:23.349Z,1002.03
2017-01-11T00:33:23.695Z,1001.99
2017-01-11T00:34:23.589Z,1001.98
2017-01-11T00:35:23.524Z,1002.08
2017-01-11T00:36:23.526Z,1002.18
2017-01-11T00:37:23.613Z,1002.24
2017-01-11T00:38:23.411Z,1002.22
2017-01-11T00:39:23.499Z,1002.3
2017-01-11T00:40:23.381Z,1002.25
2017-01-11T00:41:23.523Z,1002.36
2017-01-11T00:42:23.461Z,1002.32
2017-01-11T00:43:23.868Z,1002.31
2017-01-11T00:44:23.515Z,1002.31
2017-01-11T00:45:23.554Z,1002.29
2017-01-11T00:46:23.901Z,1002.32
2017-01-11T00:47:23.993Z,1002.27
2017-01-11T00:48:23.541Z,1002.28
2017-01-11T00:49:23.501Z,1002.3
2017-01-11T00:50:23.478Z,1002.31
2017-01-11T00:51:23.577Z,1002.33
2017-01-11T00:52:23.628Z,1002.29
2017-01-11T00:53:23.795Z,1002.34
2017-01-11T00:54:23.699Z,1002.32
2017-01-11T00:55:23.739Z,1002.3
2017-01-11T00:56:24.070Z,1002.31
2017-01-11T00:57:23.945Z,1002.3
2017-01-11T00:58:23.674Z,1002.29
2017-01-11T00:59:23.725Z,1002.28
2017-01-11T01:00:23.752Z,1002.32
2017-01-11T01:01:23.849Z,1002.29
2017-01-11T01:02:24.045Z,1002.24
2017-01-11T01:03:23.791Z,1002.23
2017-01-11T01:04:23.678Z,1002.19
2017-01-11T01:05:23.880Z,1002.2
2017-01-11T01:06:23.876Z,1002.14
2017-01-11T01:07:23.749Z,1002.16
2017-01-11T01:08:23.746Z,1002.24
2017-01-11T01:09:23.753Z,1002.23
2017-01-11T01:10:23.809Z,1002.26
2017-01-11T01:11:23.988Z,1002.23
2017-01-11T01:12:23.925Z,1002.24
2017-01-11T01:13:24.059Z,1002.23
2017-01-11T01:14:23.863Z,1002.27
2017-01-11T01:15:24.088Z,1002.27
2017-01-11T01:16:23.900Z,1002.3
2017-01-11T01:17:23.932Z,1002.29
2017-01-11T01:18:24.060Z,1002.25
2017-01-11T01:19:24.050Z,1002.21
2017-01-11T01:20:23.939Z,1002.16
2017-01-11T01:21:24.540Z,1002.16
2017-01-11T01:22:24.330Z,1002.13
2017-01-11T01:23:24.157Z,1002.12
2017-01-11T01:24:24.074Z,1002.15
2017-01-11T01:25:24.031Z,1002.1
2017-01-11T01:26:23.956Z,1002.12
2017-01-11T01:27:24.026Z,1002.11
2017-01-11T01:28:24.033Z,1002.08
2017-01-11T01:29:24.463Z,1002.07
2017-01-11T01:30:24.097Z,1002.03
2017-01-11T01:31:24.226Z,1002.01
2017-01-11T01:32:24.330Z,1002.08
2017-01-11T01:33:24.220Z,1002.08
2017-01-11T01:34:24.106Z,1002.07
2017-01-11T01:35:24.080Z,1002.08
2017-01-11T01:36:24.189Z,1002.07
2017-01-11T01:37:24.225Z,1002.09
2017-01-11T01:38:24.201Z,1002.02
2017-01-11T01:39:24.442Z,1001.86
2017-01-11T01:40:24.651Z,1001.77
2017-01-11T01:41:24.736Z,1001.7
2017-01-11T01:42:24.357Z,1001.78
2017-01-11T01:43:24.470Z,1001.85
2017-01-11T01:44:24.554Z,1002.01
2017-01-11T01:45:24.273Z,1002.03
2017-01-11T01:46:24.424Z,1002.03
2017-01-11T01:47:24.616Z,1002.03
2017-01-11T01:48:24.402Z,1002.01
2017-01-11T01:49:24.495Z,1002.03
2017-01-11T01:50:24.634Z,1001.99
2017-01-11T01:51:24.525Z,1002.03
2017-01-11T01:52:24.420Z,1001.98
2017-01-11T01:53:24.555Z,1002.05
2017-01-11T01:54:24.377Z,1002.09
2017-01-11T01:55:24.908Z,1002.11
2017-01-11T01:56:24.354Z,1002.09
2017-01-11T01:57:24.651Z,1002.11
2017-01-11T01:58:24.488Z,1002.04
2017-01-11T01:59:24.670Z,1001.97
2017-01-11T02:00:24.450Z,1002
2017-01-11T02:01:24.576Z,1002.07
2017-01-11T02:02:24.753Z,1002.08
2017-01-11T02:03:24.684Z,1002.17
2017-01-11T02:04:25.127Z,1002.24
2017-01-11T02:05:24.628Z,1002.28
2017-01-11T02:06:24.647Z,1002.27
2017-01-11T02:07:24.638Z,1002.3
2017-01-11T02:08:24.698Z,1002.29
2017-01-11T02:09:24.752Z,1002.3
2017-01-11T02:10:24.683Z,1002.22
2017-01-11T02:11:24.710Z,1002.22
2017-01-11T02:12:24.676Z,1002.22
2017-01-11T02:13:24.765Z,1002.1
2017-01-11T02:14:24.673Z,1002
2017-01-11T02:15:24.775Z,1001.95
2017-01-11T02:16:24.927Z,1001.9
2017-01-11T02:17:24.622Z,1001.94
2017-01-11T02:18:24.712Z,1001.86
2017-01-11T02:19:24.889Z,1001.8
2017-01-11T02:20:24.635Z,1001.75
2017-01-11T02:21:24.763Z,1001.71
2017-01-11T02:22:24.700Z,1001.66
2017-01-11T02:23:24.653Z,1001.61
2017-01-11T02:24:24.696Z,1001.63
2017-01-11T02:25:24.834Z,1001.71
2017-01-11T02:26:24.764Z,1001.74
2017-01-11T02:27:24.835Z,1001.72
2017-01-11T02:28:25.150Z,1001.71
2017-01-11T02:29:25.284Z,1001.71
2017-01-11T02:30:24.906Z,1001.68
2017-01-11T02:31:24.898Z,1001.65
2017-01-11T02:32:25.020Z,1001.66
2017-01-11T02:33:24.965Z,1001.65
2017-01-11T02:34:25.165Z,1001.68
2017-01-11T02:35:25.023Z,1001.68
2017-01-11T02:36:25.049Z,1001.63
2017-01-11T02:37:25.058Z,1001.62
2017-01-11T02:38:25.238Z,1001.63
2017-01-11T02:39:25.005Z,1001.54
2017-01-11T02:40:24.828Z,1001.56
2017-01-11T02:41:24.871Z,1001.52
2017-01-11T02:42:25.389Z,1001.49
2017-01-11T02:43:24.944Z,1001.48
2017-01-11T02:44:25.005Z,1001.45
2017-01-11T02:45:25.277Z,1001.38
2017-01-11T02:46:25.038Z,1001.28
2017-01-11T02:47:25.036Z,1001.21
2017-01-11T02:48:25.113Z,1001.28
2017-01-11T02:49:25.217Z,1001.38
2017-01-11T02:50:25.240Z,1001.38
2017-01-11T02:51:25.040Z,1001.41
2017-01-11T02:52:24.958Z,1001.47
2017-01-11T02:53:25.120Z,1001.47
2017-01-11T02:54:25.233Z,1001.47
2017-01-11T02:55:25.274Z,1001.46
2017-01-11T02:56:25.062Z,1001.49
2017-01-11T02:57:25.374Z,1001.42
2017-01-11T02:58:25.150Z,1001.38
2017-01-11T02:59:25.082Z,1001.38
2017-01-11T03:00:25.223Z,1001.35
2017-01-11T03:01:25.239Z,1001.36
2017-01-11T03:02:25.067Z,1001.36
2017-01-11T03:03:25.228Z,1001.34
2017-01-11T03:04:25.410Z,1001.31
2017-01-11T03:05:25.235Z,1001.3
2017-01-11T03:06:25.445Z,1001.23
2017-01-11T03:07:25.554Z,1001.2
2017-01-11T03:08:25.314Z,1001.19
2017-01-11T03:09:25.183Z,1001.19
2017-01-11T03:10:25.386Z,1001.19
2017-01-11T03:11:25.295Z,1001.15
2017-01-11T03:12:25.483Z,1001.24
2017-01-11T03:13:25.427Z,1001.19
2017-01-11T03:14:25.433Z,1001.08
2017-01-11T03:15:25.311Z,1001.05
2017-01-11T03:16:25.351Z,1000.96
2017-01-11T03:17:25.543Z,1000.97
2017-01-11T03:18:25.585Z,1000.99
2017-01-11T03:19:25.470Z,1000.95
2017-01-11T03:20:25.597Z,1000.99
2017-01-11T03:21:25.417Z,1000.99
2017-01-11T03:22:25.786Z,1000.93
2017-01-11T03:23:25.679Z,1000.95
2017-01-11T03:24:25.385Z,1000.92
2017-01-11T03:25:25.533Z,1000.89
2017-01-11T03:26:25.517Z,1000.88
2017-01-11T03:27:25.388Z,1000.89
2017-01-11T03:28:25.466Z,1000.89
2017-01-11T03:29:25.578Z,1000.93
2017-01-11T03:30:25.600Z,1000.9
2017-01-11T03:31:25.526Z,1000.9
2017-01-11T03:32:25.508Z,1000.86
2017-01-11T03:33:25.575Z,1000.82
2017-01-11T03:34:25.554Z,1000.84
2017-01-11T03:35:25.851Z,1000.82
2017-01-11T03:36:25.627Z,1000.8
2017-01-11T03:37:25.484Z,1000.8
2017-01-11T03:38:25.684Z,1000.78
2017-01-11T03:39:26.119Z,1000.72
2017-01-11T03:40:25.645Z,1000.72
2017-01-11T03:41:25.651Z,1000.73
2017-01-11T03:42:25.592Z,1000.75
2017-01-11T03:43:25.808Z,1000.78
2017-01-11T03:44:25.722Z,1000.78
2017-01-11T03:45:25.853Z,1000.8
2017-01-11T03:46:25.717Z,1000.8
2017-01-11T03:47:25.679Z,1000.82
2017-01-11T03:48:25.740Z,1000.78
2017-01-11T03:49:25.626Z,1000.76
2017-01-11T03:50:25.685Z,1000.74
2017-01-11T03:51:26.043Z,1000.8
2017-01-11T03:52:25.882Z,1000.81
2017-01-11T03:53:26.124Z,1000.75
2017-01-11T03:54:25.774Z,1000.7
2017-01-11T03:55:26.100Z,1000.67
2017-01-11T03:56:25.751Z,1000.66
2017-01-11T03:57:25.970Z,1000.62
2017-01-11T03:58:25.825Z,1000.63
2017-01-11T03:59:25.939Z,1000.58
2017-01-11T04:00:25.809Z,1000.53
2017-01-11T04:01:26.185Z,1000.54
2017-01-11T04:02:26.021Z,1000.51
2017-01-11T04:03:25.884Z,1000.47
2017-01-11T04:04:26.108Z,1000.52
2017-01-11T04:05:26.049Z,1000.54
2017-01-11T04:06:26.117Z,1000.54
2017-01-11T04:07:25.953Z,1000.49
2017-01-11T04:08:26.161Z,1000.43
2017-01-11T04:09:26.120Z,1000.39
2017-01-11T04:10:25.918Z,1000.34
2017-01-11T04:11:26.027Z,1000.37
2017-01-11T04:12:25.947Z,1000.38
2017-01-11T04:13:25.960Z,1000.4
2017-01-11T04:14:26.046Z,1000.38
2017-01-11T04:15:26.544Z,1000.3
2017-01-11T04:16:26.227Z,1000.29
2017-01-11T04:17:26.059Z,1000.27
2017-01-11T04:18:26.015Z,1000.29
2017-01-11T04:19:26.288Z,1000.34
2017-01-11T04:20:26.718Z,1000.39
2017-01-11T04:21:26.124Z,1000.35
2017-01-11T04:22:26.219Z,1000.34
2017-01-11T04:23:26.106Z,1000.28
2017-01-11T04:24:26.187Z,1000.27
2017-01-11T04:25:26.281Z,1000.31
2017-01-11T04:26:26.289Z,1000.36
2017-01-11T04:27:26.182Z,1000.42
2017-01-11T04:28:26.274Z,1000.44
2017-01-11T04:29:26.200Z,1000.4
2017-01-11T04:30:26.456Z,1000.38
2017-01-11T04:31:26.609Z,1000.31
2017-01-11T04:32:26.274Z,1000.26
2017-01-11T04:33:26.408Z,1000.15
2017-01-11T04:34:26.311Z,1000.11
2017-01-11T04:35:26.385Z,1000.01
2017-01-11T04:36:26.717Z,999.97
2017-01-11T04:37:26.315Z,999.97
2017-01-11T04:38:26.708Z,1000
2017-01-11T04:39:26.304Z,999.96
2017-01-11T04:40:26.361Z,999.96
2017-01-11T04:41:26.347Z,999.95
2017-01-11T04:42:26.619Z,999.94
2017-01-11T04:43:26.531Z,999.95
2017-01-11T04:44:26.557Z,999.91
2017-01-11T04:45:26.502Z,999.93
2017-01-11T04:46:26.532Z,999.92
2017-01-11T04:47:26.516Z,999.95
2017-01-11T04:48:26.660Z,999.98
2017-01-11T04:49:26.727Z,999.89
2017-01-11T04:50:26.692Z,999.95
2017-01-11T04:51:26.565Z,999.87
2017-01-11T04:52:26.909Z,999.87
2017-01-11T04:53:26.564Z,999.91
2017-01-11T04:54:26.483Z,999.89
2017-01-11T04:55:26.564Z,999.85
2017-01-11T04:56:26.726Z,999.99
2017-01-11T04:57:26.577Z,1000
2017-01-11T04:58:26.722Z,999.97
2017-01-11T04:59:26.677Z,999.93
2017-01-11T05:00:26.574Z,999.83
2017-01-11T05:01:26.673Z,999.86
2017-01-11T05:02:26.506Z,999.86
2017-01-11T05:03:26.729Z,999.83
2017-01-11T05:04:26.645Z,999.87
2017-01-11T05:05:26.631Z,999.83
2017-01-11T05:06:26.661Z,999.79
2017-01-11T05:07:26.587Z,999.79
2017-01-11T05:08:26.552Z,999.76
2017-01-11T05:09:26.905Z,999.71
2017-01-11T05:10:26.740Z,999.78
2017-01-11T05:11:26.994Z,999.77
2017-01-11T05:12:26.867Z,999.72
2017-01-11T05:13:26.751Z,999.62
2017-01-11T05:14:26.840Z,999.61
2017-01-11T05:15:26.800Z,999.59
2017-01-11T05:16:26.887Z,999.55
2017-01-11T05:17:26.809Z,999.43
2017-01-11T05:18:27.186Z,999.34
2017-01-11T05:19:27.052Z,999.32
2017-01-11T05:20:27.101Z,999.31
2017-01-11T05:21:27.212Z,999.3
2017-01-11T05:22:26.905Z,999.26
2017-01-11T05:23:27.313Z,999.25
2017-01-11T05:24:26.863Z,999.26
2017-01-11T05:25:27.146Z,999.2
2017-01-11T05:26:26.861Z,999.2
2017-01-11T05:27:26.867Z,999.16
2017-01-11T05:28:27.007Z,999.11
2017-01-11T05:29:27.227Z,999.12
2017-01-11T05:30:27.272Z,999.23
2017-01-11T05:31:27.261Z,999.29
2017-01-11T05:32:27.402Z,999.36
2017-01-11T05:33:27.176Z,999.39
2017-01-11T05:34:27.106Z,999.38
2017-01-11T05:35:27.231Z,999.45
2017-01-11T05:36:27.197Z,999.43
2017-01-11T05:37:27.190Z,999.49
2017-01-11T05:38:27.154Z,999.41
2017-01-11T05:39:27.579Z,999.4
2017-01-11T05:40:27.047Z,999.38
2017-01-11T05:41:27.170Z,999.34
2017-01-11T05:42:27.268Z,999.34
2017-01-11T05:43:27.120Z,999.41
2017-01-11T05:44:27.095Z,999.4
2017-01-11T05:45:27.271Z,999.43
2017-01-11T05:46:27.189Z,999.33
2017-01-11T05:47:27.144Z,999.21
2017-01-11T05:48:27.179Z,999.16
2017-01-11T05:49:27.238Z,999.12
2017-01-11T05:50:27.380Z,999.1
2017-01-11T05:51:27.482Z,999.08
2017-01-11T05:52:27.160Z,998.97
2017-01-11T05:53:27.363Z,998.96
2017-01-11T05:54:27.341Z,998.98
2017-01-11T05:55:27.311Z,998.94
2017-01-11T05:56:27.705Z,998.99
2017-01-11T05:57:27.308Z,998.88
2017-01-11T05:58:27.723Z,998.93
2017-01-11T05:59:27.531Z,999
2017-01-11T06:00:27.655Z,999.01
2017-01-11T06:01:27.713Z,999.05
2017-01-11T06:02:27.283Z,999.04
2017-01-11T06:03:27.807Z,998.94
2017-01-11T06:04:27.279Z,998.87
2017-01-11T06:05:27.635Z,998.77
2017-01-11T06:06:27.457Z,998.73
2017-01-11T06:07:27.929Z,998.73
2017-01-11T06:08:27.841Z,998.8
2017-01-11T06:09:27.436Z,998.75
2017-01-11T06:10:27.686Z,998.71
2017-01-11T06:11:27.502Z,998.61
2017-01-11T06:12:27.447Z,998.53
2017-01-11T06:13:27.441Z,998.43
2017-01-11T06:14:27.758Z,998.49
2017-01-11T06:15:27.852Z,998.47
2017-01-11T06:16:27.708Z,998.47
2017-01-11T06:17:27.562Z,998.42
2017-01-11T06:18:27.945Z,998.37
2017-01-11T06:19:27.939Z,998.42
2017-01-11T06:20:27.737Z,998.45
2017-01-11T06:21:27.654Z,998.45
2017-01-11T06:22:27.891Z,998.43
2017-01-11T06:23:27.768Z,998.44
2017-01-11T06:24:27.669Z,998.37
2017-01-11T06:25:28.494Z,998.32
2017-01-11T06:26:27.651Z,998.35
2017-01-11T06:27:27.687Z,998.36
2017-01-11T06:28:27.675Z,998.39
2017-01-11T06:29:27.788Z,998.42
2017-01-11T06:30:27.742Z,998.38
2017-01-11T06:31:27.679Z,998.35
2017-01-11T06:32:27.784Z,998.41
2017-01-11T06:33:27.739Z,998.38
2017-01-11T06:34:27.739Z,998.38
2017-01-11T06:35:27.691Z,998.35
2017-01-11T06:36:27.743Z,998.34
2017-01-11T06:37:27.895Z,998.34
2017-01-11T06:38:27.622Z,998.34
2017-01-11T06:39:28.502Z,998.3
2017-01-11T06:40:28.335Z,998.33
2017-01-11T06:41:28.617Z,998.29
2017-01-11T06:42:27.890Z,998.27
2017-01-11T06:43:28.340Z,998.3
2017-01-11T06:44:27.999Z,998.33
2017-01-11T06:45:27.884Z,998.37
2017-01-11T06:46:27.852Z,998.36
2017-01-11T06:47:27.918Z,998.35
2017-01-11T06:48:28.083Z,998.32
2017-01-11T06:49:27.868Z,998.34
2017-01-11T06:50:28.417Z,998.31
2017-01-11T06:51:28.207Z,998.28
2017-01-11T06:52:27.881Z,998.29
2017-01-11T06:53:28.779Z,998.17
2017-01-11T06:54:28.105Z,998.12
2017-01-11T06:55:28.185Z,998.07
2017-01-11T06:56:28.086Z,998.07
2017-01-11T06:57:28.723Z,998.04
2017-01-11T06:58:28.330Z,998.06
2017-01-11T06:59:28.300Z,998.01
2017-01-11T07:00:28.031Z,997.99
2017-01-11T07:01:28.786Z,997.97
2017-01-11T07:02:28.227Z,997.98
2017-01-11T07:03:28.315Z,997.99
2017-01-11T07:04:28.269Z,998.03
2017-01-11T07:05:28.316Z,998.05
2017-01-11T07:06:28.416Z,998.09
2017-01-11T07:07:28.297Z,998.11
2017-01-11T07:08:28.403Z,998.13
2017-01-11T07:09:28.419Z,998.12
2017-01-11T07:10:28.371Z,998.13
2017-01-11T07:11:28.265Z,998.12
2017-01-11T07:12:28.263Z,998.25
2017-01-11T07:13:28.449Z,998.19
2017-01-11T07:14:28.400Z,998.12
2017-01-11T07:15:28.341Z,998.15
2017-01-11T07:16:28.183Z,998.13
2017-01-11T07:17:28.470Z,998.14
2017-01-11T07:18:28.258Z,998.14
2017-01-11T07:19:28.780Z,998.11
2017-01-11T07:20:28.387Z,998.13
2017-01-11T07:21:28.485Z,998.13
2017-01-11T07:22:28.621Z,998.12
2017-01-11T07:23:28.577Z,998.04
2017-01-11T07:24:28.385Z,998.06
2017-01-11T07:25:28.336Z,998.09
2017-01-11T07:26:28.232Z,998.09
2017-01-11T07:27:28.277Z,998.11
2017-01-11T07:28:28.366Z,998.11
2017-01-11T07:29:28.469Z,998.17
2017-01-11T07:30:28.796Z,998.17
2017-01-11T07:31:28.368Z,998.16
2017-01-11T07:32:28.483Z,998.12
2017-01-11T07:33:28.660Z,998.04
2017-01-11T07:34:28.360Z,997.93
2017-01-11T07:35:28.655Z,998
2017-01-11T07:36:28.591Z,998.02
2017-01-11T07:37:28.437Z,998.01
2017-01-11T07:38:28.505Z,998
2017-01-11T07:39:28.432Z,998.05
2017-01-11T07:40:28.539Z,998.08
2017-01-11T07:41:28.537Z,998.04
2017-01-11T07:42:28.455Z,998.12
2017-01-11T07:43:28.730Z,998.11
2017-01-11T07:44:28.569Z,998.1
2017-01-11T07:45:28.561Z,998.16
2017-01-11T07:46:28.577Z,998.18
2017-01-11T07:47:28.882Z,998.19
2017-01-11T07:48:28.668Z,998.21
2017-01-11T07:49:28.791Z,998.21
2017-01-11T07:50:28.710Z,998.25
2017-01-11T07:51:28.737Z,998.22
2017-01-11T07:52:28.892Z,998.14
2017-01-11T07:53:28.666Z,998.2
2017-01-11T07:54:28.881Z,998.17
2017-01-11T07:55:29.012Z,998.16
2017-01-11T07:56:28.717Z,998.22
2017-01-11T07:57:28.833Z,998.11
2017-01-11T07:58:28.904Z,998.05
2017-01-11T07:59:29.018Z,997.97
2017-01-11T08:00:28.932Z,997.88
2017-01-11T08:01:28.761Z,997.84
2017-01-11T08:02:28.817Z,997.79
2017-01-11T08:03:28.699Z,997.75
2017-01-11T08:04:28.792Z,997.55
2017-01-11T08:05:28.829Z,997.49
2017-01-11T08:06:29.604Z,997.48
2017-01-11T08:07:29.048Z,997.56
2017-01-11T08:08:29.359Z,997.46
2017-01-11T08:09:29.070Z,997.47
2017-01-11T08:10:29.311Z,997.4
2017-01-11T08:11:28.915Z,997.36
2017-01-11T08:12:28.909Z,997.29
2017-01-11T08:13:28.951Z,997.28
2017-01-11T08:14:28.959Z,997.21
2017-01-11T08:15:29.242Z,997.26
2017-01-11T08:16:29.718Z,997.21
2017-01-11T08:17:29.084Z,997.26
2017-01-11T08:18:29.385Z,997.29
2017-01-11T08:19:29.394Z,997.25
2017-01-11T08:20:29.277Z,997.16
2017-01-11T08:21:29.363Z,997.26
2017-01-11T08:22:29.600Z,997.22
2017-01-11T08:23:29.381Z,997.16
2017-01-11T08:24:29.387Z,997.09
2017-01-11T08:25:29.519Z,997.05
2017-01-11T08:26:29.546Z,997.06
2017-01-11T08:27:29.269Z,997.01
2017-01-11T08:28:29.321Z,997.04
2017-01-11T08:29:29.529Z,997.03
2017-01-11T08:30:29.497Z,997.02
2017-01-11T08:31:29.439Z,996.92
2017-01-11T08:32:29.233Z,996.83
2017-01-11T08:33:29.288Z,996.86
2017-01-11T08:34:29.206Z,996.8
2017-01-11T08:35:29.365Z,996.71
2017-01-11T08:36:29.696Z,996.69
2017-01-11T08:37:29.535Z,996.59
2017-01-11T08:38:29.571Z,996.65
2017-01-11T08:39:29.191Z,996.64
2017-01-11T08:40:29.439Z,996.67
2017-01-11T08:41:29.232Z,996.67
2017-01-11T08:42:29.206Z,996.64
2017-01-11T08:43:29.560Z,996.61
2017-01-11T08:44:29.344Z,996.51
2017-01-11T08:45:29.337Z,996.5
2017-01-11T08:46:29.301Z,996.46
2017-01-11T08:47:29.309Z,996.48
2017-01-11T08:48:29.550Z,996.44
2017-01-11T08:49:29.354Z,996.42
2017-01-11T08:50:29.692Z,996.33
2017-01-11T08:51:29.264Z,996.35
2017-01-11T08:52:29.336Z,996.39
2017-01-11T08:53:29.420Z,996.36
2017-01-11T08:54:29.563Z,996.38
2017-01-11T08:55:29.670Z,996.36
2017-01-11T08:56:29.701Z,996.22
2017-01-11T08:57:29.614Z,996.26
2017-01-11T08:58:29.513Z,996.24
2017-01-11T08:59:29.653Z,996.17
2017-01-11T09:00:29.578Z,996.16
2017-01-11T09:01:29.939Z,996.16
2017-01-11T09:02:29.771Z,996.09
2017-01-11T09:03:29.530Z,996.03
2017-01-11T09:04:29.625Z,995.91
2017-01-11T09:05:30.221Z,995.94
2017-01-11T09:06:29.589Z,995.82
2017-01-11T09:07:29.869Z,995.81
2017-01-11T09:08:29.918Z,995.74
2017-01-11T09:09:30.277Z,995.76
2017-01-11T09:10:29.886Z,995.82
2017-01-11T09:11:29.554Z,995.79
2017-01-11T09:12:29.704Z,995.8
2017-01-11T09:13:29.890Z,995.86
2017-01-11T09:14:30.346Z,995.69
2017-01-11T09:15:30.376Z,995.77
2017-01-11T09:16:29.970Z,995.64
2017-01-11T09:17:29.915Z,995.58
2017-01-11T09:18:29.725Z,995.5
2017-01-11T09:19:29.805Z,995.49
2017-01-11T09:20:29.818Z,995.44
2017-01-11T09:21:30.123Z,995.33
2017-01-11T09:22:29.772Z,995.35
2017-01-11T09:23:30.261Z,995.08
2017-01-11T09:24:29.828Z,995.09
2017-01-11T09:25:30.286Z,995.02
2017-01-11T09:26:29.924Z,994.88
2017-01-11T09:27:29.850Z,995.02
2017-01-11T09:28:29.935Z,994.99
2017-01-11T09:29:29.947Z,994.93
2017-01-11T09:30:30.198Z,994.89
2017-01-11T09:31:29.916Z,994.9
2017-01-11T09:32:29.898Z,994.91
2017-01-11T09:33:29.990Z,994.8
2017-01-11T09:34:30.871Z,994.78
2017-01-11T09:35:31.328Z,994.8
2017-01-11T09:36:31.104Z,994.88
2017-01-11T09:37:31.132Z,994.8
2017-01-11T09:38:31.365Z,994.85
2017-01-11T09:39:30.392Z,995.07
2017-01-11T09:40:31.130Z,994.95
2017-01-11T09:41:32.120Z,995.03
2017-01-11T09:42:30.906Z,994.83
2017-01-11T09:43:30.995Z,994.84
2017-01-11T09:44:30.578Z,994.78
2017-01-11T09:45:30.752Z,994.77
2017-01-11T09:46:30.389Z,994.64
2017-01-11T09:47:31.031Z,994.65
2017-01-11T09:48:31.005Z,994.61
2017-01-11T09:49:30.535Z,994.61
2017-01-11T09:50:31.139Z,994.6
2017-01-11T09:51:30.524Z,994.56
2017-01-11T09:52:30.672Z,994.5
2017-01-11T09:53:30.829Z,994.48
2017-01-11T09:54:30.568Z,994.48
2017-01-11T09:55:31.099Z,994.49
2017-01-11T09:56:30.541Z,994.45
2017-01-11T09:57:30.420Z,994.39
2017-01-11T09:58:30.349Z,994.39
2017-01-11T09:59:30.196Z,994.38
2017-01-11T10:00:30.380Z,994.33
2017-01-11T10:01:30.203Z,994.31
2017-01-11T10:02:30.650Z,994.24
2017-01-11T10:03:30.270Z,994.21
2017-01-11T10:04:30.330Z,994.2
2017-01-11T10:05:30.336Z,994.25
2017-01-11T10:06:30.566Z,994.18
2017-01-11T10:07:30.294Z,994.12
2017-01-11T10:08:30.550Z,994.11
2017-01-11T10:09:30.495Z,994.05
2017-01-11T10:10:30.658Z,994
2017-01-11T10:11:30.469Z,993.9
2017-01-11T10:12:30.582Z,993.77
2017-01-11T10:13:30.585Z,993.67
2017-01-11T10:14:30.617Z,993.59
2017-01-11T10:15:30.624Z,993.55
2017-01-11T10:16:30.689Z,993.5
2017-01-11T10:17:30.527Z,993.41
2017-01-11T10:18:30.529Z,993.38
2017-01-11T10:19:30.529Z,993.4
2017-01-11T10:20:30.592Z,993.37
2017-01-11T10:21:30.426Z,993.38
2017-01-11T10:22:30.667Z,993.29
2017-01-11T10:23:30.728Z,993.27
2017-01-11T10:24:30.526Z,993.17
2017-01-11T10:25:30.737Z,993.1
2017-01-11T10:26:30.624Z,993.09
2017-01-11T10:27:30.914Z,993.02
2017-01-11T10:28:30.687Z,993.05
2017-01-11T10:29:30.682Z,993.01
2017-01-11T10:30:30.621Z,993.07
2017-01-11T10:31:30.640Z,992.96
2017-01-11T10:32:30.717Z,992.89
2017-01-11T10:33:30.841Z,992.9
2017-01-11T10:34:30.765Z,992.9
2017-01-11T10:35:30.685Z,992.84
2017-01-11T10:36:30.879Z,992.78
2017-01-11T10:37:31.010Z,992.72
2017-01-11T10:38:30.663Z,992.68
2017-01-11T10:39:30.948Z,992.7
2017-01-11T10:40:30.854Z,992.64
2017-01-11T10:41:30.888Z,992.55
2017-01-11T10:42:31.057Z,992.44
2017-01-11T10:43:30.960Z,992.43
2017-01-11T10:44:31.262Z,992.35
2017-01-11T10:45:31.077Z,992.33
2017-01-11T10:46:31.197Z,992.31
2017-01-11T10:47:31.005Z,992.22
2017-01-11T10:48:31.144Z,992.25
2017-01-11T10:49:31.257Z,992.21
2017-01-11T10:50:30.941Z,992.2
2017-01-11T10:51:31.176Z,992.01
2017-01-11T10:52:30.994Z,991.98
2017-01-11T10:53:31.227Z,992.06
2017-01-11T10:54:30.956Z,991.97
2017-01-11T10:55:31.170Z,991.94
2017-01-11T10:56:30.971Z,991.9
2017-01-11T10:57:31.171Z,991.89
2017-01-11T10:58:31.129Z,991.89
2017-01-11T10:59:31.170Z,991.83
2017-01-11T11:00:31.121Z,991.84
2017-01-11T11:01:31.004Z,991.77
2017-01-11T11:02:31.281Z,991.84
2017-01-11T11:03:31.220Z,991.83
2017-01-11T11:04:31.523Z,991.77
2017-01-11T11:05:31.120Z,991.84
2017-01-11T11:06:31.237Z,991.73
2017-01-11T11:07:31.070Z,991.7
2017-01-11T11:08:31.291Z,991.71
2017-01-11T11:09:31.596Z,991.7
2017-01-11T11:10:31.192Z,991.7
2017-01-11T11:11:31.227Z,991.67
2017-01-11T11:12:31.283Z,991.68
2017-01-11T11:13:31.215Z,991.76
2017-01-11T11:14:31.359Z,991.7
2017-01-11T11:15:31.836Z,991.63
2017-01-11T11:16:31.805Z,991.72
2017-01-11T11:17:31.184Z,991.65
2017-01-11T11:18:31.320Z,991.62
2017-01-11T11:19:31.550Z,991.53
2017-01-11T11:20:31.638Z,991.46
2017-01-11T11:21:31.617Z,991.54
2017-01-11T11:22:31.424Z,991.5
2017-01-11T11:23:31.355Z,991.51
2017-01-11T11:24:31.491Z,991.45
2017-01-11T11:25:31.579Z,991.47
2017-01-11T11:26:31.750Z,991.39
2017-01-11T11:27:31.490Z,991.42
2017-01-11T11:28:31.554Z,991.29
2017-01-11T11:29:31.637Z,991.25
2017-01-11T11:30:31.533Z,991.27
2017-01-11T11:31:31.525Z,991.12
2017-01-11T11:32:31.527Z,991.1
2017-01-11T11:33:31.563Z,991.2
2017-01-11T11:34:31.778Z,991.12
2017-01-11T11:35:31.527Z,991.24
2017-01-11T11:36:31.471Z,991.1
2017-01-11T11:37:31.576Z,991.01
2017-01-11T11:38:31.688Z,990.99
2017-01-11T11:39:31.639Z,991.09
2017-01-11T11:40:31.654Z,990.94
2017-01-11T11:41:31.597Z,990.92
2017-01-11T11:42:31.728Z,990.94
2017-01-11T11:43:31.688Z,990.65
2017-01-11T11:44:31.739Z,990.83
2017-01-11T11:45:31.535Z,990.74
2017-01-11T11:46:32.249Z,990.84
2017-01-11T11:47:31.616Z,990.79
2017-01-11T11:48:32.138Z,990.82
2017-01-11T11:49:31.821Z,990.74
2017-01-11T11:50:31.954Z,990.83
2017-01-11T11:51:32.178Z,990.7
2017-01-11T11:52:31.814Z,990.78
2017-01-11T11:53:32.070Z,990.69
2017-01-11T11:54:31.839Z,990.69
2017-01-11T11:55:31.874Z,990.68
2017-01-11T11:56:31.932Z,990.64
2017-01-11T11:57:32.029Z,990.52
2017-01-11T11:58:31.878Z,990.5
2017-01-11T11:59:32.271Z,990.49
2017-01-11T12:00:32.037Z,990.39
2017-01-11T12:01:32.013Z,990.34
2017-01-11T12:02:31.805Z,990.45
2017-01-11T12:03:32.070Z,990.42
2017-01-11T12:04:31.994Z,990.5
2017-01-11T12:05:31.984Z,990.42
2017-01-11T12:06:32.171Z,990.37
2017-01-11T12:07:32.024Z,990.38
2017-01-11T12:08:32.200Z,990.36
2017-01-11T12:09:32.138Z,990.21
2017-01-11T12:10:32.269Z,990.24
2017-01-11T12:11:32.315Z,990.23
2017-01-11T12:12:32.182Z,990.26
2017-01-11T12:13:32.364Z,990.25
2017-01-11T12:14:32.177Z,990.26
2017-01-11T12:15:32.144Z,990.29
2017-01-11T12:16:32.087Z,990.26
2017-01-11T12:17:32.121Z,990.16
2017-01-11T12:18:32.219Z,990.1
2017-01-11T12:19:32.619Z,990.1
2017-01-11T12:20:32.179Z,990.1
2017-01-11T12:21:32.105Z,990.13
2017-01-11T12:22:32.213Z,990.14